Aktualne dane pomiarowe

Uwaga, wersja testowa! Automatyczne pobieranie danych za pomocą narzędzi lub skryptów to umożliwiających jest zabronione.

Dane meteo z obszaru Polski uzyskane na podstawie depesz SYNOP pobieranych co godzinę z NWS. Najedź myszką na symbol przedstawiony w tabeli, aby uzyskać informacje co do jego znaczenia. Prosimy pamiętać, że to testowa wersja strony, która jeszcze nie jest ukończona. Stworzono również jest krótki FAQ dotyczący korzystania z tej podstrony Anomalie temperatury w chwili obecnej odniesione są do okresu referencyjnego 1951-2016. Okres ten będzie później zmieniony na 1981-2010. Kliknij ikonę aby pobrać plik CSV. Kliknij ikonę aby wygenerować mapę synoptyczną dla danego terminu.

Wybierz Datę:    

        

Szczecinek (12215)

Dane terminowe dla wybranej stacji. Kliknij datę, aby otrzymać dane z tego terminu dla wszystkich stacji.

TemperaturaZachmurzenieWiatrCiśnienieOpadyPogoda
 Data t td wb tx tn tg rh  Nt Nl Cl Cm Ch ws wd g1 g2 wx mslp ppp ch 24h 12h t ww ww w1 w2  
2019-07-10 12:00:00 20.5 6.2 12.6--- 39---5wx---1012.4 996.1 -0.4- 0.06------
2019-07-10 11:00:00 19.5 6.0 12.1--- 41---6wx---1012.6 996.3 0.0---------
2019-07-10 10:00:00 19.1 7.7 12.6--- 48---6wx---1012.7 996.4 0.4---------
2019-07-10 09:00:00 17.9 9.1 12.7--- 56---5wx---1012.9 996.5 0.5---------
2019-07-10 08:00:00 17.0 9.1 12.3--- 60---5wx---1012.8 996.3 0.3---------
2019-07-10 07:00:00 16.0 10.6 12.6--- 70---4wx---1012.5 996.0 0.0---------
2019-07-10 06:00:00 14.6 12.6 13.2 17.9 12.6 12 88---3----1012.6 996.0 0.0 2.8 2.012----- 0.0
2019-07-10 05:00:00 13.6 12.4 12.7--- 92---2----1012.7 996.0 0.2---------
2019-07-10 04:00:00 12.8 11.9 12.1--- 94---2----1012.7 996.0 0.0---------
2019-07-10 03:00:00 12.8 12.0 12.2--- 95---3----1012.7 996.1 0.0---------
2019-07-10 02:00:00 12.7 11.7 12.0--- 94---2----1012.5 995.8 -0.4---------
2019-07-10 01:00:00 12.7 11.5 11.8--- 92---2----1012.6 995.9 -0.6---------
2019-07-10 00:00:00 13.0 11.0 11.6--- 88---3----1012.7 996.0 -0.8- 0.06------
2019-07-09 23:00:00 13.4 10.5 11.5--- 83---3----1012.9 996.2 -0.8---------
2019-07-09 22:00:00 13.4 10.0 11.2--- 80---2----1013.2 996.5 -0.3---------
2019-07-09 21:00:00 13.8 9.8 11.2--- 77---3----1013.4 996.8 0.0---------
2019-07-09 20:00:00 13.5 9.5 10.9--- 77---0----1013.7 997.0 0.7---------
2019-07-09 19:00:00 14.6 9.8 11.6--- 73---3----1013.4 996.8 0.5---------
2019-07-09 18:00:00 16.0 9.8 12.2 17.9 11.8- 67---4----1013.1 996.6 0.4- 0.012------
2019-07-09 17:00:00 16.7 9.4 12.3--- 62---5wx---1012.7 996.3 0.0---------
2019-07-09 16:00:00 17.6 10.0 13.0--- 61---4----1012.7 996.3 0.0---------
2019-07-09 15:00:00 17.2 9.5 12.6--- 61---5wx---1012.7 996.2 0.0---------
2019-07-09 14:00:00 16.3 10.2 12.5--- 67---5wx---1012.7 996.3 0.2---------
2019-07-09 13:00:00 15.0 11.4 12.6--- 79---4----1013.0 996.4 0.7---------
2019-07-09 12:00:00 15.8 10.3 12.3--- 70---5wx---1012.6 996.1 0.7- 0.06------
2019-07-09 11:00:00 15.6 10.6 12.4--- 72---6wx---1012.5 996.0 0.8---------
2019-07-09 10:00:00 16.1 10.8 12.7--- 71---5wx---1012.2 995.7 0.7---------
2019-07-09 09:00:00 16.7 10.4 12.8--- 66---5wx---1011.9 995.5 0.6---------
2019-07-09 08:00:00 15.9 10.5 12.5--- 70---5wx---1011.7 995.2 0.6---------
2019-07-09 07:00:00 14.9 11.2 12.5--- 79---5wx---1011.5 995.0 0.3---------
2019-07-09 06:00:00 13.8 11.7 12.4 16.6 11.8 10 87---4wx---1011.5 994.9 0.0 0.7 0.012----- 0.0
2019-07-09 05:00:00 13.1 11.5 12.0--- 90---4----1011.3 994.6 0.2---------
2019-07-09 04:00:00 12.9 11.3 11.8--- 90---3----1011.3 994.7 -0.2---------
2019-07-09 03:00:00 12.5 11.1 11.5--- 91---3----1011.4 994.7 -0.3---------
2019-07-09 02:00:00 12.4 10.7 11.2--- 89---0----1011.2 994.5 -0.7---------
2019-07-09 01:00:00 12.3 10.3 10.9--- 88---3----1011.6 994.9 -0.3---------
2019-07-09 00:00:00 11.9 9.7 10.4--- 86---2----1011.7 995.0 -0.3- 0.06------
1.0 ms

 

Print Friendly, PDF & Email